createdAt,value
2018-08-06T05:30:59.906Z,99.90
2018-08-06T05:33:29.167Z,99.90
2018-08-06T05:35:57.894Z,99.90
2018-08-06T05:38:26.541Z,99.90
2018-08-06T05:43:23.397Z,99.90
2018-08-06T05:45:52.035Z,99.90
2018-08-06T05:48:20.687Z,99.90
2018-08-06T05:50:49.254Z,99.90
2018-08-06T05:53:18.807Z,99.90
2018-08-06T05:55:47.648Z,99.90
2018-08-06T05:58:16.335Z,99.90
2018-08-06T06:00:45.008Z,99.90
2018-08-06T06:03:13.682Z,99.90
2018-08-06T06:05:42.375Z,99.90
2018-08-06T06:08:11.454Z,99.90
2018-08-06T06:10:40.168Z,99.90
2018-08-06T06:13:08.814Z,99.90
2018-08-06T06:15:38.432Z,99.90
2018-08-06T06:18:07.031Z,98.90
2018-08-06T06:20:35.655Z,99.20
2018-08-06T06:23:04.334Z,99.50
2018-08-06T06:25:33.658Z,99.60
2018-08-06T06:28:02.343Z,98.80
2018-08-06T06:30:31.837Z,99.20
2018-08-06T06:33:01.495Z,98.20
2018-08-06T06:35:30.089Z,97.80
2018-08-06T06:37:58.662Z,97.40
2018-08-06T06:40:27.279Z,97.70
2018-08-06T06:42:56.263Z,96.80
2018-08-06T06:45:24.911Z,97.10
2018-08-06T06:47:53.495Z,97.00
2018-08-06T06:50:22.132Z,96.80
2018-08-06T06:52:50.742Z,97.50
2018-08-06T06:55:20.306Z,98.20
2018-08-06T06:57:48.958Z,96.70
2018-08-06T07:00:17.918Z,97.40
2018-08-06T07:02:46.483Z,97.50
2018-08-06T07:05:15.157Z,96.90
2018-08-06T07:07:43.777Z,97.30
2018-08-06T07:10:13.629Z,97.30
2018-08-06T07:12:43.636Z,97.60
2018-08-06T07:15:16.318Z,97.50
2018-08-06T07:17:46.977Z,96.50
2018-08-06T07:20:16.868Z,96.80
2018-08-06T07:22:45.406Z,97.00
2018-08-06T07:25:14.052Z,97.00
2018-08-06T07:27:43.352Z,97.20
2018-08-06T07:30:13.534Z,96.60
2018-08-06T07:32:42.845Z,96.60
2018-08-06T07:35:12.986Z,96.40
2018-08-06T07:37:42.179Z,95.60
2018-08-06T07:40:12.320Z,95.40
2018-08-06T07:42:40.928Z,95.50
2018-08-06T07:45:13.063Z,95.60
2018-08-06T07:47:41.660Z,95.80
2018-08-06T07:50:13.655Z,95.10
2018-08-06T07:52:42.587Z,95.30
2018-08-06T07:55:11.359Z,95.40
2018-08-06T07:57:40.344Z,96.30
2018-08-06T08:00:12.949Z,95.40
2018-08-06T08:02:41.990Z,94.70
2018-08-06T08:05:12.689Z,95.00
2018-08-06T08:07:42.446Z,95.00
2018-08-06T08:10:14.064Z,93.60
2018-08-06T08:12:43.055Z,94.10
2018-08-06T08:15:14.506Z,93.50
2018-08-06T08:17:43.910Z,93.50
2018-08-06T08:20:14.021Z,93.60
2018-08-06T08:22:42.884Z,94.10
2018-08-06T08:25:16.103Z,93.00
2018-08-06T08:27:44.911Z,93.80
2018-08-06T08:30:14.898Z,93.20
2018-08-06T08:32:43.559Z,93.10
2018-08-06T08:35:13.287Z,92.60
2018-08-06T08:37:41.972Z,92.80
2018-08-06T08:40:12.774Z,91.80
2018-08-06T08:42:41.346Z,91.80
2018-08-06T08:45:12.815Z,92.60
2018-08-06T08:47:42.392Z,92.20
2018-08-06T08:50:12.861Z,92.10
2018-08-06T08:52:41.974Z,91.30
2018-08-06T08:55:12.014Z,91.40
2018-08-06T08:57:40.812Z,92.20
2018-08-06T09:00:11.802Z,91.50
2018-08-06T09:02:40.739Z,90.60
2018-08-06T09:05:09.377Z,90.80
2018-08-06T09:07:38.543Z,91.30
2018-08-06T09:10:09.035Z,89.50
2018-08-06T09:12:37.740Z,89.50
2018-08-06T09:15:10.271Z,90.10
2018-08-06T09:17:38.932Z,90.80
2018-08-06T09:20:07.614Z,89.60
2018-08-06T09:22:36.222Z,89.20
2018-08-06T09:25:05.999Z,89.20
2018-08-06T09:27:34.664Z,89.20
2018-08-06T09:30:03.759Z,88.40
2018-08-06T09:32:32.351Z,87.80
2018-08-06T09:35:00.911Z,87.00
2018-08-06T09:37:29.755Z,85.20
2018-08-06T09:39:58.917Z,85.80
2018-08-06T09:42:27.680Z,85.80
2018-08-06T09:44:56.273Z,84.50
2018-08-06T09:47:24.945Z,82.20
2018-08-06T09:49:53.593Z,84.30
2018-08-06T09:52:22.207Z,82.70
2018-08-06T09:54:50.890Z,82.20
2018-08-06T09:57:19.479Z,80.20
2018-08-06T09:59:48.096Z,81.90
2018-08-06T10:02:16.711Z,81.90
2018-08-06T10:04:45.295Z,81.10
2018-08-06T10:07:13.877Z,79.80
2018-08-06T10:09:42.454Z,79.60
2018-08-06T10:12:11.164Z,80.40
2018-08-06T10:14:39.728Z,77.20
2018-08-06T10:17:08.347Z,78.80
2018-08-06T10:19:36.978Z,77.60
2018-08-06T10:22:05.657Z,77.50
2018-08-06T10:24:35.217Z,76.00
2018-08-06T10:27:03.808Z,76.30
2018-08-06T10:29:32.406Z,77.90
2018-08-06T10:32:01.032Z,75.70
2018-08-06T10:34:30.543Z,74.60
2018-08-06T10:37:00.056Z,74.20
2018-08-06T10:39:29.531Z,73.30
2018-08-06T10:41:59.132Z,74.00
2018-08-06T10:44:27.804Z,73.60
2018-08-06T10:46:57.387Z,71.80
2018-08-06T10:49:26.009Z,71.40
2018-08-06T10:54:22.981Z,69.20
2018-08-06T10:56:51.656Z,68.20
2018-08-06T10:59:20.400Z,68.70
2018-08-06T11:01:49.655Z,69.40
2018-08-06T11:04:18.325Z,67.30
2018-08-06T11:06:46.967Z,68.00
2018-08-06T11:09:15.989Z,66.50
2018-08-06T11:11:44.662Z,66.10
2018-08-06T11:14:13.372Z,67.00
2018-08-06T11:16:42.020Z,66.90
2018-08-06T11:19:10.779Z,68.70
2018-08-06T11:21:39.408Z,67.40
2018-08-06T11:24:08.071Z,64.40
2018-08-06T11:26:36.661Z,64.60
2018-08-06T11:29:06.088Z,62.40
2018-08-06T11:31:34.726Z,60.10
2018-08-06T11:34:04.367Z,60.70
2018-08-06T11:36:32.966Z,60.10
2018-08-06T11:39:01.577Z,58.70
2018-08-06T11:41:31.285Z,59.20
2018-08-06T11:43:59.834Z,55.70
2018-08-06T11:46:29.138Z,58.70
2018-08-06T11:48:57.763Z,59.30
2018-08-06T11:51:26.368Z,55.40
2018-08-06T11:53:55.249Z,57.80
2018-08-06T11:56:24.579Z,54.70
2018-08-06T11:58:53.171Z,54.90
2018-08-06T12:01:21.783Z,54.90
2018-08-06T12:03:50.487Z,51.40
2018-08-06T12:06:19.047Z,51.70
2018-08-06T12:11:16.130Z,44.30
2018-08-06T12:13:44.755Z,42.50
2018-08-06T12:16:14.412Z,39.50
2018-08-06T12:21:11.278Z,34.30
2018-08-06T12:23:39.893Z,35.30
2018-08-06T12:26:08.607Z,35.20
2018-08-06T12:28:37.163Z,35.10
2018-08-06T12:31:05.820Z,35.70
2018-08-06T12:33:34.468Z,35.10
2018-08-06T12:36:03.110Z,33.90
2018-08-06T12:38:43.014Z,34.70
2018-08-06T12:41:12.626Z,37.50
2018-08-06T12:43:41.379Z,38.30
2018-08-06T12:46:24.466Z,38.70
2018-08-06T12:48:53.155Z,38.70
2018-08-06T12:51:22.007Z,41.60
2018-08-06T12:53:50.604Z,41.70
2018-08-06T12:56:19.170Z,42.10
2018-08-06T12:58:47.802Z,43.30
2018-08-06T13:01:16.661Z,42.40
2018-08-06T13:03:45.318Z,42.60
2018-08-06T13:06:14.664Z,43.70
2018-08-06T13:08:43.655Z,45.50
2018-08-06T13:11:12.690Z,46.10
2018-08-06T13:13:41.394Z,43.40
2018-08-06T13:16:10.017Z,42.50
2018-08-06T13:21:07.955Z,44.10
2018-08-06T13:23:36.586Z,43.60
2018-08-06T13:26:05.326Z,40.70
2018-08-06T13:28:33.975Z,39.60
2018-08-06T13:31:02.619Z,40.60
2018-08-06T13:33:31.702Z,40.20
2018-08-06T13:36:00.327Z,39.90
2018-08-06T13:38:29.983Z,38.70
2018-08-06T13:40:58.705Z,37.40
2018-08-06T13:43:27.288Z,36.00
2018-08-06T13:45:56.049Z,38.30
2018-08-06T13:48:24.809Z,34.90
2018-08-06T13:50:56.778Z,35.40
2018-08-06T13:53:25.546Z,36.00
2018-08-06T13:55:55.021Z,36.50
2018-08-06T13:58:23.762Z,37.60
2018-08-06T14:00:52.536Z,37.40
2018-08-06T14:03:21.344Z,37.70
2018-08-06T14:05:49.994Z,37.10
2018-08-06T14:08:18.681Z,36.30
2018-08-06T14:10:47.377Z,37.10
2018-08-06T14:13:16.027Z,35.90
2018-08-06T14:18:48.283Z,38.60
2018-08-06T14:21:17.000Z,40.40
2018-08-06T14:23:46.911Z,41.30
2018-08-06T14:26:15.577Z,41.40
2018-08-06T14:28:44.369Z,42.00
2018-08-06T14:31:13.919Z,41.60
2018-08-06T14:33:43.384Z,43.70
2018-08-06T14:36:14.174Z,42.20
2018-08-06T14:41:11.146Z,42.50
2018-08-06T14:43:39.855Z,41.20
2018-08-06T14:46:08.615Z,39.10
2018-08-06T14:48:37.291Z,39.20
2018-08-06T14:51:06.051Z,38.60
2018-08-06T14:53:34.806Z,36.30
2018-08-06T14:56:04.850Z,37.80
2018-08-06T14:58:33.675Z,36.20
2018-08-06T15:01:05.181Z,35.70
2018-08-06T15:03:33.799Z,38.20
2018-08-06T15:06:03.127Z,39.00
2018-08-06T15:08:31.995Z,37.50
2018-08-06T15:11:00.632Z,37.60
2018-08-06T15:13:30.531Z,40.20
2018-08-06T15:15:59.194Z,38.50
2018-08-06T15:18:27.820Z,42.90
2018-08-06T15:20:56.518Z,38.50
2018-08-06T15:23:25.138Z,41.20
2018-08-06T15:25:54.702Z,38.70
2018-08-06T15:28:23.807Z,40.70
2018-08-06T15:30:52.474Z,39.40
2018-08-06T15:33:21.120Z,37.90
2018-08-06T15:35:49.787Z,37.90
2018-08-06T15:38:18.439Z,37.10
2018-08-06T15:40:47.499Z,37.20
2018-08-06T15:43:16.226Z,37.40
2018-08-06T15:45:44.907Z,36.10
2018-08-06T15:48:13.581Z,36.50
2018-08-06T15:50:42.218Z,35.10
2018-08-06T15:53:10.882Z,35.90
2018-08-06T15:55:40.296Z,36.50
2018-08-06T15:58:09.004Z,38.50
2018-08-06T16:00:38.430Z,35.20
2018-08-06T16:03:07.139Z,38.40
2018-08-06T16:05:35.775Z,35.40
2018-08-06T16:08:04.491Z,34.40
2018-08-06T16:10:33.084Z,33.40
2018-08-06T16:13:01.698Z,33.40
2018-08-06T16:15:30.338Z,32.70
2018-08-06T16:17:59.040Z,34.10
2018-08-06T16:20:27.649Z,34.20
2018-08-06T16:22:56.238Z,34.50
2018-08-06T16:25:24.843Z,34.30
2018-08-06T16:27:54.102Z,33.90
2018-08-06T16:30:24.157Z,35.30
2018-08-06T16:32:52.815Z,36.40
2018-08-06T16:35:23.824Z,38.50
2018-08-06T16:37:53.996Z,36.60
2018-08-06T16:40:22.726Z,36.40
2018-08-06T16:42:51.838Z,38.60
2018-08-06T16:45:21.383Z,37.10
2018-08-06T16:47:50.207Z,37.80
2018-08-06T16:50:19.325Z,37.30
2018-08-06T16:52:49.760Z,39.10
2018-08-06T16:55:18.306Z,38.60
2018-08-06T16:57:46.954Z,37.90
2018-08-06T17:00:18.439Z,39.20
2018-08-06T17:02:48.667Z,39.20
2018-08-06T17:05:17.383Z,38.60
2018-08-06T17:07:47.208Z,39.70
2018-08-06T17:10:18.694Z,39.20
2018-08-06T17:12:48.792Z,39.80
2018-08-06T17:15:18.610Z,41.00
2018-08-06T17:17:48.139Z,38.80
2018-08-06T17:20:19.517Z,41.30
2018-08-06T17:22:49.912Z,44.60
2018-08-06T17:25:18.726Z,39.50
2018-08-06T17:27:47.415Z,40.80
2018-08-06T17:30:17.063Z,42.40
2018-08-06T17:32:46.317Z,44.00
2018-08-06T17:35:15.506Z,43.20
2018-08-06T17:37:44.177Z,43.70
2018-08-06T17:40:15.256Z,46.00
2018-08-06T17:42:44.879Z,43.90
2018-08-06T17:45:17.246Z,41.50
2018-08-06T17:47:47.996Z,44.10
2018-08-06T17:50:19.462Z,46.80
2018-08-06T17:52:50.287Z,47.50
2018-08-06T17:55:21.540Z,48.10
2018-08-06T17:57:50.354Z,49.00
2018-08-06T18:00:20.804Z,49.70
2018-08-06T18:02:50.374Z,50.80
2018-08-06T18:05:19.555Z,50.60
2018-08-06T18:07:49.032Z,51.00
2018-08-06T18:10:18.711Z,51.00
2018-08-06T18:12:47.865Z,50.20
2018-08-06T18:15:17.588Z,50.60
2018-08-06T18:17:47.212Z,53.10
2018-08-06T18:20:19.108Z,53.20
2018-08-06T18:22:49.640Z,53.40
2018-08-06T18:25:20.964Z,55.20
2018-08-06T18:27:51.896Z,55.80
2018-08-06T18:30:23.588Z,57.10
2018-08-06T18:32:54.633Z,57.50
2018-08-06T18:35:25.567Z,58.70
2018-08-06T18:37:56.715Z,60.30
2018-08-06T18:40:27.710Z,62.50
2018-08-06T18:43:00.176Z,61.80
2018-08-06T18:45:31.570Z,61.80
2018-08-06T18:48:03.180Z,62.50
2018-08-06T18:50:34.308Z,63.30
2018-08-06T18:53:05.291Z,66.50
2018-08-06T18:55:36.949Z,68.60
2018-08-06T19:00:39.098Z,68.20
2018-08-06T19:03:10.276Z,68.50
2018-08-06T19:05:41.655Z,69.10
2018-08-06T19:08:12.742Z,71.40
2018-08-06T19:10:44.116Z,71.50
2018-08-06T19:13:19.973Z,73.60
2018-08-06T19:15:51.597Z,74.80
2018-08-06T19:18:28.216Z,76.40
2018-08-06T19:21:01.297Z,78.70
2018-08-06T19:23:32.345Z,79.90
2018-08-06T19:26:03.440Z,80.40
2018-08-06T19:28:34.503Z,80.50
2018-08-06T19:31:10.478Z,81.30
2018-08-06T19:33:42.622Z,81.70
2018-08-06T19:36:13.874Z,82.30
2018-08-06T19:38:44.927Z,82.80
2018-08-06T19:41:16.241Z,84.80
2018-08-06T19:43:48.422Z,84.30
2018-08-06T19:46:19.566Z,84.40
2018-08-06T19:48:51.723Z,85.50
2018-08-06T19:51:22.775Z,85.60
2018-08-06T19:53:54.016Z,84.90
2018-08-06T19:56:25.373Z,85.00
2018-08-06T19:58:56.500Z,85.20
2018-08-06T20:01:27.736Z,84.30
2018-08-06T20:04:00.953Z,84.60
2018-08-06T20:06:32.384Z,84.20
2018-08-06T20:09:03.921Z,85.00
2018-08-06T20:11:35.741Z,85.50
2018-08-06T20:14:07.022Z,86.40
2018-08-06T20:16:38.645Z,86.00
2018-08-06T20:19:10.603Z,85.30
2018-08-06T20:21:41.770Z,85.40
2018-08-06T20:24:13.069Z,85.60
2018-08-06T20:26:44.234Z,85.30
2018-08-06T20:29:15.216Z,86.00
2018-08-06T20:31:46.345Z,86.40
2018-08-06T20:34:23.568Z,86.40
2018-08-06T20:36:54.652Z,87.00
2018-08-06T20:39:25.589Z,87.60
2018-08-06T20:41:56.721Z,89.50
2018-08-06T20:44:27.687Z,90.60
2018-08-06T20:46:59.136Z,91.40
2018-08-06T20:49:30.231Z,91.60
2018-08-06T20:52:01.398Z,91.80
2018-08-06T20:54:35.304Z,92.60
2018-08-06T20:57:06.614Z,93.10
2018-08-06T20:59:38.325Z,93.50
2018-08-06T21:02:09.720Z,92.90
2018-08-06T21:04:40.508Z,93.10
2018-08-06T21:07:11.664Z,93.50
2018-08-06T21:09:42.718Z,94.00
2018-08-06T21:12:13.696Z,94.40
2018-08-06T21:14:46.477Z,94.50
2018-08-06T21:17:16.676Z,94.30
2018-08-06T21:19:45.636Z,94.80
2018-08-06T21:22:15.369Z,94.80
2018-08-06T21:24:44.377Z,94.70
2018-08-06T21:27:13.222Z,94.30
2018-08-06T21:29:42.136Z,94.40
2018-08-06T21:32:10.712Z,94.80
2018-08-06T21:34:40.502Z,95.10
2018-08-06T21:37:09.174Z,94.70
2018-08-06T21:39:37.897Z,94.80
2018-08-06T21:42:06.797Z,94.90
2018-08-06T21:44:35.511Z,94.90
2018-08-06T21:47:04.166Z,95.20
2018-08-06T21:49:32.747Z,94.90
2018-08-06T21:52:01.404Z,95.60
2018-08-06T21:54:31.025Z,95.10
2018-08-06T21:57:00.735Z,95.00
2018-08-06T21:59:29.290Z,94.80
2018-08-06T22:01:57.992Z,95.20
2018-08-06T22:04:26.704Z,95.20
2018-08-06T22:06:55.421Z,95.90
2018-08-06T22:09:24.114Z,95.90
2018-08-06T22:11:53.152Z,96.20
2018-08-06T22:14:22.155Z,96.40
2018-08-06T22:16:51.724Z,96.40
2018-08-06T22:19:20.452Z,96.10
2018-08-06T22:24:18.160Z,97.10
2018-08-06T22:26:47.473Z,97.30
2018-08-06T22:29:16.070Z,97.10
2018-08-06T22:31:44.644Z,97.30
2018-08-06T22:34:13.246Z,97.70
2018-08-06T22:36:41.807Z,98.20
2018-08-06T22:39:11.135Z,98.40
2018-08-06T22:41:39.723Z,98.00
2018-08-06T22:44:08.347Z,98.10
2018-08-06T22:46:36.950Z,97.80
2018-08-06T22:49:06.511Z,97.10
2018-08-06T22:51:36.121Z,97.10
2018-08-06T22:54:04.863Z,97.20
2018-08-06T22:56:33.426Z,97.80
2018-08-06T22:59:02.138Z,97.10
